createdAt,value
2023-05-19T00:00:38.277Z,0.4203
2023-05-19T00:01:39.983Z,0.4214
2023-05-19T00:02:42.450Z,0.4203
2023-05-19T00:03:43.415Z,0.4197
2023-05-19T00:04:44.880Z,0.4194
2023-05-19T00:05:46.599Z,0.4195
2023-05-19T00:06:48.140Z,0.4191
2023-05-19T00:07:49.868Z,0.4196
2023-05-19T00:08:51.981Z,0.4191
2023-05-19T00:09:53.104Z,0.4195
2023-05-19T00:10:54.860Z,0.4193
2023-05-19T00:11:56.511Z,0.4193
2023-05-19T00:12:58.083Z,0.4191
2023-05-19T00:13:59.746Z,0.4191
2023-05-19T00:15:01.338Z,0.4197
2023-05-19T00:16:03.042Z,0.4200
2023-05-19T00:17:04.637Z,0.4198
2023-05-19T00:18:06.366Z,0.4185
2023-05-19T00:19:08.022Z,0.4190
2023-05-19T00:20:09.595Z,0.4193
2023-05-19T00:21:11.189Z,0.4183
2023-05-19T00:22:12.899Z,0.4179
2023-05-19T00:23:14.499Z,0.4175
2023-05-19T00:24:16.190Z,0.4172
2023-05-19T00:25:17.795Z,0.4176
2023-05-19T00:26:19.506Z,0.4170
2023-05-19T00:27:21.106Z,0.4169
2023-05-19T00:28:22.770Z,0.4161
2023-05-19T00:29:24.388Z,0.4160
2023-05-19T00:30:26.080Z,0.4158
2023-05-19T00:31:27.747Z,0.4153
2023-05-19T00:32:29.416Z,0.4152
2023-05-19T00:33:30.992Z,0.4154
2023-05-19T00:34:32.921Z,0.4169
2023-05-19T00:35:34.280Z,0.4185
2023-05-19T00:36:35.979Z,0.4187
2023-05-19T00:37:37.510Z,0.4175
2023-05-19T00:38:39.214Z,0.4176
2023-05-19T00:39:40.915Z,0.4196
2023-05-19T00:40:42.600Z,0.4191
2023-05-19T00:41:44.160Z,0.4191
2023-05-19T00:42:45.832Z,0.4192
2023-05-19T00:43:47.403Z,0.4198
2023-05-19T00:44:49.163Z,0.4207
2023-05-19T00:45:51.411Z,0.4206
2023-05-19T00:46:52.391Z,0.4198
2023-05-19T00:47:53.993Z,0.4187
2023-05-19T00:48:55.665Z,0.4182
2023-05-19T00:49:57.302Z,0.4191
2023-05-19T00:50:58.984Z,0.4191
2023-05-19T00:52:00.557Z,0.4193
2023-05-19T00:53:02.254Z,0.4204
2023-05-19T00:54:03.850Z,0.4214
2023-05-19T00:55:05.948Z,0.4218
2023-05-19T00:56:07.186Z,0.4231
2023-05-19T00:57:08.783Z,0.4237
2023-05-19T00:58:11.417Z,0.4237
2023-05-19T00:59:12.143Z,0.4240
2023-05-19T01:00:13.745Z,0.4247
2023-05-19T01:01:15.442Z,0.4245
2023-05-19T01:02:17.027Z,0.4232
2023-05-19T01:03:18.728Z,0.4218
2023-05-19T01:04:20.308Z,0.4218
2023-05-19T01:05:22.112Z,0.4217
2023-05-19T01:06:23.646Z,0.4206
2023-05-19T01:07:25.290Z,0.4192
2023-05-19T01:08:27.012Z,0.4184
2023-05-19T01:09:28.591Z,0.4175
2023-05-19T01:10:30.421Z,0.4171
2023-05-19T01:11:32.411Z,0.4164
2023-05-19T01:12:33.468Z,0.4152
2023-05-19T01:13:35.185Z,0.4150
2023-05-19T01:14:36.732Z,0.4146
2023-05-19T01:15:38.457Z,0.4145
2023-05-19T01:16:40.128Z,0.4141
2023-05-19T01:17:41.820Z,0.4139
2023-05-19T01:18:43.365Z,0.4138
2023-05-19T01:19:45.027Z,0.4136
2023-05-19T01:20:46.668Z,0.4142
2023-05-19T01:21:48.394Z,0.4142
2023-05-19T01:22:49.969Z,0.4147
2023-05-19T01:23:51.580Z,0.4142
2023-05-19T01:24:53.942Z,0.4133
2023-05-19T01:25:54.957Z,0.4133
2023-05-19T01:26:56.965Z,0.4132
2023-05-19T01:27:58.187Z,0.4120
2023-05-19T01:28:59.765Z,0.4115
2023-05-19T01:30:01.547Z,0.4112
2023-05-19T01:31:03.161Z,0.4121
2023-05-19T01:32:04.852Z,0.4127
2023-05-19T01:33:06.470Z,0.4126
2023-05-19T01:34:08.120Z,0.4127
2023-05-19T01:35:09.689Z,0.4118
2023-05-19T01:36:11.322Z,0.4116
2023-05-19T01:37:13.948Z,0.4114
2023-05-19T01:38:14.633Z,0.4107
2023-05-19T01:39:16.282Z,0.4096
2023-05-19T01:40:17.872Z,0.4082
2023-05-19T01:41:19.586Z,0.4071
2023-05-19T01:42:21.230Z,0.4063
2023-05-19T01:43:22.830Z,0.4062
2023-05-19T01:44:25.451Z,0.4061
2023-05-19T01:45:26.148Z,0.4072
2023-05-19T01:46:27.936Z,0.4078
2023-05-19T01:47:29.510Z,0.4084
2023-05-19T01:48:31.092Z,0.4076
2023-05-19T01:49:32.739Z,0.4079
2023-05-19T01:50:34.603Z,0.4083
2023-05-19T01:51:36.097Z,0.4080
2023-05-19T01:52:38.400Z,0.4081
2023-05-19T01:53:39.344Z,0.4076
2023-05-19T01:54:40.947Z,0.4075
2023-05-19T01:55:42.662Z,0.4062
2023-05-19T01:56:44.427Z,0.4062
2023-05-19T01:57:45.994Z,0.4050
2023-05-19T01:58:47.603Z,0.4052
2023-05-19T01:59:49.264Z,0.4059
2023-05-19T02:00:50.894Z,0.4056
2023-05-19T02:01:52.613Z,0.4052
2023-05-19T02:02:54.249Z,0.4077
2023-05-19T02:03:55.792Z,0.4075
2023-05-19T02:04:57.524Z,0.4070
2023-05-19T02:05:59.229Z,0.4068
2023-05-19T02:07:00.770Z,0.4068
2023-05-19T02:08:02.515Z,0.4066
2023-05-19T02:09:04.073Z,0.4063
2023-05-19T02:10:05.724Z,0.4067
2023-05-19T02:11:07.311Z,0.4067
2023-05-19T02:12:09.063Z,0.4075
2023-05-19T02:13:10.984Z,0.4075
2023-05-19T02:14:12.327Z,0.4067
2023-05-19T02:15:13.914Z,0.4065
2023-05-19T02:16:15.639Z,0.4067
2023-05-19T02:17:17.241Z,0.4075
2023-05-19T02:18:18.883Z,0.4064
2023-05-19T02:19:20.667Z,0.4054
2023-05-19T02:20:22.206Z,0.4047
2023-05-19T02:21:23.818Z,0.4042
2023-05-19T02:22:25.464Z,0.4047
2023-05-19T02:23:27.111Z,0.4045
2023-05-19T02:24:28.744Z,0.4039
2023-05-19T02:25:30.390Z,0.4032
2023-05-19T02:26:32.020Z,0.4032
2023-05-19T02:27:33.932Z,0.4030
2023-05-19T02:28:35.360Z,0.4029
2023-05-19T02:29:37.912Z,0.4022
2023-05-19T02:30:38.596Z,0.4019
2023-05-19T02:31:40.308Z,0.4019
2023-05-19T02:32:41.962Z,0.4016
2023-05-19T02:33:43.940Z,0.4013
2023-05-19T02:34:45.215Z,0.4034
2023-05-19T02:35:46.786Z,0.4048
2023-05-19T02:36:48.439Z,0.4057
2023-05-19T02:37:50.224Z,0.4051
2023-05-19T02:38:51.756Z,0.4047
2023-05-19T02:39:53.391Z,0.4046
2023-05-19T02:40:55.141Z,0.4046
2023-05-19T02:41:56.756Z,0.4043
2023-05-19T02:42:58.356Z,0.4030
2023-05-19T02:44:00.476Z,0.4025
2023-05-19T02:45:01.602Z,0.4018
2023-05-19T02:46:03.317Z,0.4014
2023-05-19T02:47:04.882Z,0.4017
2023-05-19T02:48:06.699Z,0.4012
2023-05-19T02:49:08.315Z,0.4012
2023-05-19T02:50:09.924Z,0.4012
2023-05-19T02:51:11.562Z,0.4018
2023-05-19T02:52:13.318Z,0.4026
2023-05-19T02:53:15.064Z,0.4024
2023-05-19T02:54:17.006Z,0.4021
2023-05-19T02:55:18.124Z,0.4020
2023-05-19T02:56:19.819Z,0.4022
2023-05-19T02:57:21.427Z,0.4022
2023-05-19T02:58:23.165Z,0.4028
2023-05-19T02:59:25.715Z,0.4024
2023-05-19T03:00:26.366Z,0.4024
2023-05-19T03:01:28.062Z,0.4023
2023-05-19T03:02:29.764Z,0.4016
2023-05-19T03:03:31.436Z,0.4007
2023-05-19T03:04:32.943Z,0.4013
2023-05-19T03:05:34.659Z,0.4022
2023-05-19T03:06:36.269Z,0.4017
2023-05-19T03:07:38.582Z,0.4009
2023-05-19T03:08:42.176Z,0.4006
2023-05-19T03:09:41.188Z,0.4012
2023-05-19T03:10:42.708Z,0.4009
2023-05-19T03:11:44.393Z,0.4010
2023-05-19T03:12:46.010Z,0.4008
2023-05-19T03:13:47.728Z,0.4005
2023-05-19T03:14:49.390Z,0.4000
2023-05-19T03:15:50.963Z,0.3995
2023-05-19T03:16:52.846Z,0.3999
2023-05-19T03:17:54.278Z,0.4006
2023-05-19T03:18:55.899Z,0.4006
2023-05-19T03:19:57.553Z,0.4018
2023-05-19T03:20:59.179Z,0.4032
2023-05-19T03:22:00.767Z,0.4032
2023-05-19T03:23:02.384Z,0.4030
2023-05-19T03:24:04.108Z,0.4026
2023-05-19T03:25:09.003Z,0.4021
2023-05-19T03:26:07.366Z,0.4017
2023-05-19T03:27:09.029Z,0.4020
2023-05-19T03:28:10.663Z,0.4024
2023-05-19T03:29:12.275Z,0.4041
2023-05-19T03:30:15.017Z,0.4041
2023-05-19T03:31:15.582Z,0.4039
2023-05-19T03:32:17.249Z,0.4029
2023-05-19T03:33:18.927Z,0.4023
2023-05-19T03:34:21.495Z,0.4018
2023-05-19T03:35:22.155Z,0.4016
2023-05-19T03:36:23.745Z,0.4018
2023-05-19T03:37:25.411Z,0.4023
2023-05-19T03:38:27.048Z,0.4016
2023-05-19T03:39:28.660Z,0.4019
2023-05-19T03:40:30.554Z,0.4022
2023-05-19T03:41:32.040Z,0.4023
2023-05-19T03:42:33.693Z,0.4031
2023-05-19T03:43:35.324Z,0.4030
2023-05-19T03:44:36.965Z,0.4032
2023-05-19T03:45:38.681Z,0.4030
2023-05-19T03:46:40.273Z,0.4023
2023-05-19T03:47:41.914Z,0.4019
2023-05-19T03:48:43.578Z,0.4013
2023-05-19T03:49:45.176Z,0.4004
2023-05-19T03:50:46.869Z,0.3998
2023-05-19T03:51:48.443Z,0.3987
2023-05-19T03:52:50.127Z,0.3985
2023-05-19T03:53:51.775Z,0.3986
2023-05-19T03:54:54.482Z,0.3979
2023-05-19T03:55:55.443Z,0.3975
2023-05-19T03:56:56.694Z,0.3965
2023-05-19T03:57:58.373Z,0.3968
2023-05-19T03:59:00.029Z,0.3971
2023-05-19T04:00:01.789Z,0.3970
2023-05-19T04:01:03.373Z,0.3961
2023-05-19T04:02:04.934Z,0.3959
2023-05-19T04:03:06.632Z,0.3961
2023-05-19T04:04:08.269Z,0.3947
2023-05-19T04:05:10.001Z,0.3949
2023-05-19T04:06:11.522Z,0.3950
2023-05-19T04:07:13.181Z,0.3944
2023-05-19T04:08:14.776Z,0.3950
2023-05-19T04:09:16.452Z,0.3950
2023-05-19T04:10:19.239Z,0.3944
2023-05-19T04:11:19.904Z,0.3939
2023-05-19T04:12:21.571Z,0.3937
2023-05-19T04:13:23.237Z,0.3927
2023-05-19T04:14:25.769Z,0.3923
2023-05-19T04:15:27.327Z,0.3922
2023-05-19T04:16:28.224Z,0.3921
2023-05-19T04:17:29.769Z,0.3922
2023-05-19T04:18:31.434Z,0.3925
2023-05-19T04:19:33.027Z,0.3924
2023-05-19T04:20:35.158Z,0.3917
2023-05-19T04:21:36.288Z,0.3916
2023-05-19T04:22:37.972Z,0.3915
2023-05-19T04:23:39.615Z,0.3917
2023-05-19T04:24:41.274Z,0.3919
2023-05-19T04:25:42.940Z,0.3919
2023-05-19T04:26:44.573Z,0.3919
2023-05-19T04:27:46.235Z,0.3919
2023-05-19T04:28:47.879Z,0.3919
2023-05-19T04:29:49.469Z,0.3916
2023-05-19T04:30:51.307Z,0.3910
2023-05-19T04:31:52.779Z,0.3908
2023-05-19T04:32:55.431Z,0.3907
2023-05-19T04:33:55.973Z,0.3908
2023-05-19T04:34:57.754Z,0.3912
2023-05-19T04:35:59.405Z,0.3901
2023-05-19T04:37:01.029Z,0.3899
2023-05-19T04:38:02.664Z,0.3896
2023-05-19T04:39:04.286Z,0.3887
2023-05-19T04:40:06.176Z,0.3891
2023-05-19T04:41:07.558Z,0.3894
2023-05-19T04:42:09.234Z,0.3899
2023-05-19T04:43:10.866Z,0.3899
2023-05-19T04:44:12.479Z,0.3901
2023-05-19T04:45:14.336Z,0.3908
2023-05-19T04:46:16.902Z,0.3916
2023-05-19T04:47:17.323Z,0.3928
2023-05-19T04:48:19.106Z,0.3930
2023-05-19T04:49:20.649Z,0.3935
2023-05-19T04:50:22.423Z,0.3937
2023-05-19T04:51:24.031Z,0.3941
2023-05-19T04:52:25.719Z,0.3957
2023-05-19T04:53:27.277Z,0.3963
2023-05-19T04:54:28.966Z,0.3962
2023-05-19T04:55:30.551Z,0.3955
2023-05-19T04:56:32.328Z,0.3953
2023-05-19T04:57:33.821Z,0.3957
2023-05-19T04:58:35.475Z,0.3958
2023-05-19T04:59:37.690Z,0.3948
2023-05-19T05:00:38.749Z,0.3947
2023-05-19T05:01:40.519Z,0.3940
2023-05-19T05:02:43.251Z,0.3947
2023-05-19T05:03:43.731Z,0.3968
2023-05-19T05:04:45.291Z,0.3975
2023-05-19T05:05:46.969Z,0.3974
2023-05-19T05:06:48.673Z,0.3972
2023-05-19T05:07:51.187Z,0.3970
2023-05-19T05:08:51.857Z,0.3970
2023-05-19T05:09:53.441Z,0.3964
2023-05-19T05:10:55.125Z,0.3958
2023-05-19T05:11:56.904Z,0.3955
2023-05-19T05:12:58.427Z,0.3955
2023-05-19T05:14:00.178Z,0.3950
2023-05-19T05:15:01.788Z,0.3942
2023-05-19T05:16:03.442Z,0.3941
2023-05-19T05:17:05.211Z,0.3935
2023-05-19T05:18:06.704Z,0.3919
2023-05-19T05:19:08.341Z,0.3917
2023-05-19T05:20:09.954Z,0.3919
2023-05-19T05:21:11.604Z,0.3916
2023-05-19T05:22:13.278Z,0.3912
2023-05-19T05:23:14.925Z,0.3896
2023-05-19T05:24:16.476Z,0.3886
2023-05-19T05:25:18.272Z,0.3889
2023-05-19T05:26:19.838Z,0.3893
2023-05-19T05:27:21.564Z,0.3914
2023-05-19T05:28:23.084Z,0.3915
2023-05-19T05:29:24.790Z,0.3909
2023-05-19T05:30:26.335Z,0.3904
2023-05-19T05:31:28.016Z,0.3905
2023-05-19T05:32:30.809Z,0.3910
2023-05-19T05:33:31.190Z,0.3912
2023-05-19T05:34:33.043Z,0.3907
2023-05-19T05:35:34.676Z,0.3909
2023-05-19T05:36:36.328Z,0.3924
2023-05-19T05:37:37.912Z,0.3913
2023-05-19T05:38:39.611Z,0.3908
2023-05-19T05:39:42.198Z,0.3904
2023-05-19T05:40:42.809Z,0.3898
2023-05-19T05:41:44.491Z,0.3891
2023-05-19T05:42:46.178Z,0.3891
2023-05-19T05:43:48.754Z,0.3891
2023-05-19T05:44:50.373Z,0.3896
2023-05-19T05:45:51.097Z,0.3909
2023-05-19T05:46:52.712Z,0.3906
2023-05-19T05:47:55.261Z,0.3901
2023-05-19T05:48:56.958Z,0.3899
2023-05-19T05:49:58.491Z,0.3898
2023-05-19T05:50:59.361Z,0.3891
2023-05-19T05:52:06.428Z,0.3891
2023-05-19T05:53:02.528Z,0.3893
2023-05-19T05:54:04.084Z,0.3897
2023-05-19T05:55:05.807Z,0.3894
2023-05-19T05:56:07.436Z,0.3887
2023-05-19T05:57:09.113Z,0.3882
2023-05-19T05:58:10.724Z,0.3878
2023-05-19T05:59:12.338Z,0.3877
2023-05-19T06:00:13.993Z,0.3891
2023-05-19T06:01:15.689Z,0.3894
2023-05-19T06:02:17.331Z,0.3893
2023-05-19T06:03:19.061Z,0.3897
2023-05-19T06:04:20.573Z,0.3902
2023-05-19T06:05:23.128Z,0.3906
2023-05-19T06:06:23.881Z,0.3899
2023-05-19T06:07:25.573Z,0.3901
2023-05-19T06:08:27.150Z,0.3901
2023-05-19T06:09:28.754Z,0.3908
2023-05-19T06:10:30.552Z,0.3914
2023-05-19T06:11:32.058Z,0.3912
2023-05-19T06:12:33.663Z,0.3911
2023-05-19T06:13:35.572Z,0.3904
2023-05-19T06:14:36.956Z,0.3902
2023-05-19T06:15:38.679Z,0.3910
2023-05-19T06:16:40.331Z,0.3920
2023-05-19T06:17:41.960Z,0.3922
2023-05-19T06:18:43.637Z,0.3927
2023-05-19T06:19:45.302Z,0.3922
2023-05-19T06:20:46.897Z,0.3926
2023-05-19T06:21:48.504Z,0.3942
2023-05-19T06:22:50.083Z,0.3955
2023-05-19T06:23:51.848Z,0.3949
2023-05-19T06:24:53.389Z,0.3943
2023-05-19T06:25:55.071Z,0.3941
2023-05-19T06:26:56.808Z,0.3940
2023-05-19T06:27:58.433Z,0.3943
2023-05-19T06:29:00.126Z,0.3938
2023-05-19T06:30:01.726Z,0.3941
2023-05-19T06:31:03.312Z,0.3934
2023-05-19T06:32:04.912Z,0.3929
2023-05-19T06:33:06.601Z,0.3925
2023-05-19T06:34:08.263Z,0.3926
2023-05-19T06:35:09.844Z,0.3928
2023-05-19T06:36:11.448Z,0.3923
2023-05-19T06:37:13.245Z,0.3923
2023-05-19T06:38:14.799Z,0.3932
2023-05-19T06:39:17.121Z,0.3935
2023-05-19T06:40:18.072Z,0.3934
2023-05-19T06:41:19.698Z,0.3938
2023-05-19T06:42:21.335Z,0.3932
2023-05-19T06:43:22.991Z,0.3925
2023-05-19T06:44:24.708Z,0.3934
2023-05-19T06:45:26.271Z,0.3943
2023-05-19T06:46:27.971Z,0.3952
2023-05-19T06:47:29.656Z,0.3961
2023-05-19T06:48:31.224Z,0.3958
2023-05-19T06:49:33.136Z,0.3957
2023-05-19T06:50:34.849Z,0.3958
2023-05-19T06:51:36.184Z,0.3957
2023-05-19T06:52:37.790Z,0.3950
2023-05-19T06:53:39.501Z,0.3954
2023-05-19T06:54:41.247Z,0.3953
2023-05-19T06:55:57.499Z,0.3955
2023-05-19T06:56:44.500Z,0.3949
2023-05-19T06:57:46.098Z,0.3945
2023-05-19T06:58:47.753Z,0.3947
2023-05-19T06:59:49.448Z,0.3957
2023-05-19T07:00:51.013Z,0.3957
2023-05-19T07:01:52.770Z,0.3952
2023-05-19T07:02:55.128Z,0.3947
2023-05-19T07:03:56.068Z,0.3944
2023-05-19T07:04:58.087Z,0.3949
2023-05-19T07:05:59.609Z,0.3956
2023-05-19T07:07:00.873Z,0.3951
2023-05-19T07:08:02.586Z,0.3956
2023-05-19T07:09:04.225Z,0.3964
2023-05-19T07:10:05.831Z,0.3978
2023-05-19T07:11:07.469Z,0.3984
2023-05-19T07:12:09.105Z,0.3984
2023-05-19T07:13:10.748Z,0.3978
2023-05-19T07:14:12.387Z,0.3972
2023-05-19T07:15:14.075Z,0.3972
2023-05-19T07:16:15.728Z,0.3966
2023-05-19T07:17:17.314Z,0.3970
2023-05-19T07:18:19.095Z,0.3972
2023-05-19T07:19:20.762Z,0.3960
2023-05-19T07:20:23.147Z,0.3957
2023-05-19T07:21:23.880Z,0.3971
2023-05-19T07:22:25.586Z,0.3980
2023-05-19T07:23:27.125Z,0.3986
2023-05-19T07:24:28.810Z,0.3987
2023-05-19T07:25:30.486Z,0.3988
2023-05-19T07:26:32.050Z,0.3987
2023-05-19T07:27:33.663Z,0.3997
2023-05-19T07:28:35.298Z,0.4006
2023-05-19T07:29:36.952Z,0.3997
2023-05-19T07:30:38.590Z,0.3998
2023-05-19T07:31:41.091Z,0.4001
2023-05-19T07:32:41.896Z,0.4009
2023-05-19T07:33:43.496Z,0.3999
2023-05-19T07:34:45.206Z,0.4002
2023-05-19T07:35:46.878Z,0.3983
2023-05-19T07:36:48.568Z,0.3974
2023-05-19T07:37:50.055Z,0.3966
2023-05-19T07:38:51.778Z,0.3957
2023-05-19T07:39:53.384Z,0.3941
2023-05-19T07:40:55.151Z,0.3936
2023-05-19T07:41:56.711Z,0.3941
2023-05-19T07:42:58.306Z,0.3949
2023-05-19T07:43:59.944Z,0.3950
2023-05-19T07:45:01.748Z,0.3941
2023-05-19T07:46:03.589Z,0.3935
2023-05-19T07:47:05.064Z,0.3938
2023-05-19T07:48:06.826Z,0.3933
2023-05-19T07:49:09.323Z,0.3935
2023-05-19T07:50:09.931Z,0.3932
2023-05-19T07:51:11.806Z,0.3928
2023-05-19T07:52:13.389Z,0.3933
2023-05-19T07:53:15.904Z,0.3933
2023-05-19T07:54:16.465Z,0.3929
2023-05-19T07:55:19.100Z,0.3924
2023-05-19T07:56:19.871Z,0.3930
2023-05-19T07:57:21.588Z,0.3930
2023-05-19T07:58:24.269Z,0.3931
2023-05-19T07:59:25.652Z,0.3933
2023-05-19T08:00:26.430Z,0.3932
2023-05-19T08:01:29.049Z,0.3929
2023-05-19T08:02:29.771Z,0.3926
2023-05-19T08:03:31.406Z,0.3932
2023-05-19T08:04:33.069Z,0.3922
2023-05-19T08:05:34.631Z,0.3921
2023-05-19T08:06:36.348Z,0.3915
2023-05-19T08:07:38.032Z,0.3908
2023-05-19T08:08:39.573Z,0.3904
2023-05-19T08:09:41.243Z,0.3902
2023-05-19T08:10:42.884Z,0.3909
2023-05-19T08:11:44.467Z,0.3904
2023-05-19T08:12:46.750Z,0.3902
2023-05-19T08:13:47.705Z,0.3902
2023-05-19T08:14:49.476Z,0.3907
2023-05-19T08:15:51.123Z,0.3900
2023-05-19T08:16:52.716Z,0.3906
2023-05-19T08:17:54.402Z,0.3902
2023-05-19T08:18:56.081Z,0.3908
2023-05-19T08:19:57.798Z,0.3917
2023-05-19T08:21:00.349Z,0.3927
2023-05-19T08:22:00.821Z,0.3939
2023-05-19T08:23:02.564Z,0.3950
2023-05-19T08:24:04.249Z,0.3959
2023-05-19T08:25:05.904Z,0.3963
2023-05-19T08:26:07.488Z,0.3970
2023-05-19T08:27:09.148Z,0.3980
2023-05-19T08:28:10.752Z,0.3978
2023-05-19T08:29:12.486Z,0.3980
2023-05-19T08:30:14.214Z,0.3986
2023-05-19T08:31:15.813Z,0.3992
2023-05-19T08:32:17.439Z,0.3974
2023-05-19T08:33:19.039Z,0.3971
2023-05-19T08:34:20.757Z,0.3973
2023-05-19T08:35:23.397Z,0.3978
2023-05-19T08:36:24.187Z,0.3987
2023-05-19T08:37:25.597Z,0.3982
2023-05-19T08:38:27.276Z,0.3983
2023-05-19T08:39:28.876Z,0.3974
2023-05-19T08:40:30.711Z,0.3969
2023-05-19T08:41:32.300Z,0.3966
2023-05-19T08:42:34.839Z,0.3967
2023-05-19T08:43:35.356Z,0.3976
2023-05-19T08:44:37.109Z,0.3966
2023-05-19T08:45:38.832Z,0.3961
2023-05-19T08:46:40.454Z,0.3958
2023-05-19T08:47:42.076Z,0.3961
2023-05-19T08:48:43.709Z,0.3968
2023-05-19T08:49:45.305Z,0.3976
2023-05-19T08:50:46.945Z,0.3967
2023-05-19T08:51:48.700Z,0.3969
2023-05-19T08:52:52.958Z,0.3968
2023-05-19T08:53:51.913Z,0.3969
2023-05-19T08:54:53.470Z,0.3966
2023-05-19T08:55:56.162Z,0.3968
2023-05-19T08:56:56.782Z,0.3962
2023-05-19T08:57:58.388Z,0.3955
2023-05-19T08:58:59.990Z,0.3953
2023-05-19T09:00:01.669Z,0.3961
2023-05-19T09:01:03.322Z,0.3952
2023-05-19T09:02:05.702Z,0.3957
2023-05-19T09:04:08.373Z,0.3970
2023-05-19T09:05:09.948Z,0.3979
2023-05-19T09:06:11.513Z,0.3976
2023-05-19T09:07:13.190Z,0.3976
2023-05-19T09:08:14.960Z,0.3986
2023-05-19T09:09:16.481Z,0.4002
2023-05-19T09:10:18.177Z,0.4009
2023-05-19T09:11:19.761Z,0.3998
2023-05-19T09:12:21.538Z,0.3997
2023-05-19T09:13:23.038Z,0.4008
2023-05-19T09:14:24.667Z,0.4017
2023-05-19T09:15:26.321Z,0.4013
2023-05-19T09:16:29.942Z,0.4015
2023-05-19T09:17:29.631Z,0.4016
2023-05-19T09:18:31.315Z,0.4034
2023-05-19T09:19:33.036Z,0.4037
2023-05-19T09:20:34.638Z,0.4028
2023-05-19T09:21:36.172Z,0.4012
2023-05-19T09:22:38.225Z,0.4010
2023-05-19T09:23:39.469Z,0.4017
2023-05-19T09:24:41.202Z,0.4025
2023-05-19T09:25:42.716Z,0.4006
2023-05-19T09:26:44.425Z,0.3998
2023-05-19T09:27:46.160Z,0.3998
2023-05-19T09:28:47.735Z,0.4006
2023-05-19T09:29:49.303Z,0.4010
2023-05-19T09:30:51.012Z,0.4002
2023-05-19T09:31:52.738Z,0.3994
2023-05-19T09:32:54.341Z,0.3991
2023-05-19T09:33:56.074Z,0.3980
2023-05-19T09:34:57.549Z,0.3964
2023-05-19T09:35:59.175Z,0.3982
2023-05-19T09:37:00.903Z,0.3980
2023-05-19T09:38:02.488Z,0.3993
2023-05-19T09:39:04.229Z,0.3999
2023-05-19T09:40:05.798Z,0.4012
2023-05-19T09:41:07.484Z,0.4020
2023-05-19T09:42:09.082Z,0.4013
2023-05-19T09:43:10.730Z,0.4006
2023-05-19T09:44:12.400Z,0.4006
2023-05-19T09:45:14.043Z,0.4011
2023-05-19T09:46:15.595Z,0.4014
2023-05-19T09:47:17.313Z,0.4011
2023-05-19T09:48:18.922Z,0.4007
2023-05-19T09:49:20.618Z,0.4018
2023-05-19T09:50:22.208Z,0.4025
2023-05-19T09:51:23.855Z,0.4031
2023-05-19T09:52:25.503Z,0.4023
2023-05-19T09:53:27.226Z,0.4026
2023-05-19T09:54:28.849Z,0.4037
2023-05-19T09:55:31.099Z,0.4031
2023-05-19T09:56:32.120Z,0.4044
2023-05-19T09:57:33.696Z,0.4045
2023-05-19T09:58:35.563Z,0.4060
2023-05-19T09:59:37.041Z,0.4063
2023-05-19T10:00:38.703Z,0.4142
2023-05-19T10:01:40.389Z,0.4172
2023-05-19T10:02:41.960Z,0.4178
2023-05-19T10:03:43.535Z,0.4189
2023-05-19T10:04:45.854Z,0.4200
2023-05-19T10:05:46.883Z,0.4205
2023-05-19T10:06:48.461Z,0.4214
2023-05-19T10:07:50.114Z,0.4214
2023-05-19T10:08:51.741Z,0.4226
2023-05-19T10:09:53.752Z,0.4214
2023-05-19T10:10:55.072Z,0.4209
2023-05-19T10:11:57.181Z,0.4197
2023-05-19T10:12:58.381Z,0.4192
2023-05-19T10:14:00.012Z,0.4200
2023-05-19T10:15:01.598Z,0.4199
2023-05-19T10:16:03.586Z,0.4189
2023-05-19T10:17:05.069Z,0.4190
2023-05-19T10:18:06.557Z,0.4190
2023-05-19T10:19:08.206Z,0.4179
2023-05-19T10:20:09.841Z,0.4182
2023-05-19T10:21:11.495Z,0.4183
2023-05-19T10:22:13.049Z,0.4186
2023-05-19T10:23:15.159Z,0.4188
2023-05-19T10:24:16.301Z,0.4186
2023-05-19T10:25:17.924Z,0.4190
2023-05-19T10:26:19.523Z,0.4184
2023-05-19T10:27:21.247Z,0.4178
2023-05-19T10:28:22.916Z,0.4188
2023-05-19T10:29:24.666Z,0.4185
2023-05-19T10:30:26.137Z,0.4183
2023-05-19T10:31:27.787Z,0.4178
2023-05-19T10:32:29.698Z,0.4176
2023-05-19T10:33:31.631Z,0.4172
2023-05-19T10:34:32.699Z,0.4163
2023-05-19T10:35:34.521Z,0.4148
2023-05-19T10:36:36.052Z,0.4142
2023-05-19T10:37:38.186Z,0.4132
2023-05-19T10:38:39.296Z,0.4118
2023-05-19T10:39:41.109Z,0.4117
2023-05-19T10:40:42.765Z,0.4113
2023-05-19T10:41:45.137Z,0.4115
2023-05-19T10:42:46.019Z,0.4141
2023-05-19T10:43:47.678Z,0.4142
2023-05-19T10:44:49.340Z,0.4146
2023-05-19T10:45:51.003Z,0.4145
2023-05-19T10:46:54.162Z,0.4127
2023-05-19T10:47:54.257Z,0.4118
2023-05-19T10:48:56.966Z,0.4107
2023-05-19T10:49:57.467Z,0.4109
2023-05-19T10:50:59.160Z,0.4083
2023-05-19T10:52:00.758Z,0.4068
2023-05-19T10:53:03.376Z,0.4072
2023-05-19T10:54:04.154Z,0.4068
2023-05-19T10:55:05.738Z,0.4082
2023-05-19T10:56:07.449Z,0.4080
2023-05-19T10:57:09.125Z,0.4079
2023-05-19T10:58:10.838Z,0.4075
2023-05-19T10:59:12.874Z,0.4083
2023-05-19T11:00:15.177Z,0.4091
2023-05-19T11:01:15.761Z,0.4090
2023-05-19T11:02:18.399Z,0.4081
2023-05-19T11:03:20.229Z,0.4072
2023-05-19T11:04:20.781Z,0.4065
2023-05-19T11:05:22.232Z,0.4060
2023-05-19T11:06:23.955Z,0.4069
2023-05-19T11:07:25.556Z,0.4576
2023-05-19T11:08:27.298Z,0.7541
2023-05-19T11:09:39.879Z,0.7711
2023-05-19T11:10:31.348Z,0.7739
2023-05-19T11:11:33.230Z,0.7791
2023-05-19T11:12:33.710Z,0.7803
2023-05-19T11:13:36.667Z,0.7848
2023-05-19T11:14:37.057Z,0.7900
2023-05-19T11:15:38.575Z,0.7916
2023-05-19T11:16:41.404Z,0.7894
2023-05-19T11:17:41.983Z,0.8065
2023-05-19T11:18:43.685Z,0.8193
2023-05-19T11:19:45.249Z,0.8189
2023-05-19T11:20:47.071Z,0.8163
2023-05-19T11:21:48.570Z,0.8158
2023-05-19T11:22:50.169Z,0.8054
2023-05-19T11:23:51.938Z,0.7998
2023-05-19T11:24:53.890Z,0.7986
2023-05-19T11:25:55.895Z,0.7989
2023-05-19T11:26:56.739Z,0.7964
2023-05-19T11:27:58.497Z,0.7914
2023-05-19T11:29:00.023Z,0.7834
2023-05-19T11:30:01.836Z,0.7786
2023-05-19T11:31:03.404Z,0.7742
2023-05-19T11:32:05.078Z,0.7706
2023-05-19T11:33:06.686Z,0.7679
2023-05-19T11:34:08.247Z,0.7679
2023-05-19T11:35:09.932Z,0.7627
2023-05-19T11:36:11.579Z,0.7606
2023-05-19T11:37:13.353Z,0.7604
2023-05-19T11:38:15.795Z,0.7586
2023-05-19T11:39:17.465Z,0.7565
2023-05-19T11:40:18.126Z,0.7524
2023-05-19T11:41:20.848Z,0.7472
2023-05-19T11:42:21.474Z,0.7439
2023-05-19T11:43:23.145Z,0.7392
2023-05-19T11:44:24.742Z,0.7317
2023-05-19T11:45:26.392Z,0.7285
2023-05-19T11:46:29.066Z,0.7268
2023-05-19T11:47:32.042Z,0.7228
2023-05-19T11:48:31.319Z,0.7204
2023-05-19T11:49:32.787Z,0.7199
2023-05-19T11:50:34.451Z,0.7171
2023-05-19T11:51:36.126Z,0.7158
2023-05-19T11:52:38.277Z,0.7146
2023-05-19T11:53:39.388Z,0.7113
2023-05-19T11:54:41.029Z,0.7069
2023-05-19T11:55:42.654Z,0.7049
2023-05-19T11:56:44.367Z,0.7038
2023-05-19T11:57:56.038Z,0.7004
2023-05-19T11:58:47.602Z,0.6974
2023-05-19T11:59:49.314Z,0.6947
2023-05-19T12:00:50.863Z,0.6921
2023-05-19T12:01:52.565Z,0.6861
2023-05-19T12:02:54.390Z,0.6816
2023-05-19T12:03:55.986Z,0.6808
2023-05-19T12:04:57.541Z,0.6806
2023-05-19T12:05:59.193Z,0.6800
2023-05-19T12:07:00.777Z,0.6788
2023-05-19T12:08:02.463Z,0.6774
2023-05-19T12:09:04.000Z,0.6757
2023-05-19T12:10:05.718Z,0.6751
2023-05-19T12:11:07.302Z,0.6757
2023-05-19T12:12:09.128Z,0.6746
2023-05-19T12:13:10.930Z,0.6719
2023-05-19T12:14:12.271Z,0.6667
2023-05-19T12:15:13.858Z,0.6630
2023-05-19T12:16:15.586Z,0.6617
2023-05-19T12:17:17.195Z,0.6607
2023-05-19T12:18:18.864Z,0.6602
2023-05-19T12:19:20.480Z,0.6607
2023-05-19T12:20:22.086Z,0.6610
2023-05-19T12:21:23.767Z,0.6580
2023-05-19T12:22:25.515Z,0.6566
2023-05-19T12:23:27.090Z,0.6516
2023-05-19T12:24:28.679Z,0.6476
2023-05-19T12:25:30.348Z,0.6473
2023-05-19T12:26:32.054Z,0.6476
2023-05-19T12:27:34.904Z,0.6484
2023-05-19T12:28:35.348Z,0.6462
2023-05-19T12:29:36.866Z,0.6431
2023-05-19T12:30:38.763Z,0.6417
2023-05-19T12:31:40.180Z,0.6379
2023-05-19T12:32:41.935Z,0.6329
2023-05-19T12:33:43.505Z,0.6314
2023-05-19T12:34:45.141Z,0.6302
2023-05-19T12:35:46.756Z,0.6279
2023-05-19T12:36:48.453Z,0.6261
2023-05-19T12:37:50.078Z,0.6242
2023-05-19T12:38:51.697Z,0.6201
2023-05-19T12:39:53.331Z,0.6167
2023-05-19T12:40:54.985Z,0.6158
2023-05-19T12:41:56.626Z,0.6145
2023-05-19T12:42:58.320Z,0.6133
2023-05-19T12:43:59.919Z,0.6118
2023-05-19T12:45:03.120Z,0.6097
2023-05-19T12:46:03.197Z,0.6062
2023-05-19T12:47:04.785Z,0.6043
2023-05-19T12:48:06.787Z,0.6035
2023-05-19T12:49:08.152Z,0.6009
2023-05-19T12:50:09.998Z,0.5980